createdAt,value
2018-04-29T00:00:07.984Z,7.77
2018-04-29T00:02:34.948Z,7.27
2018-04-29T00:05:01.139Z,7.60
2018-04-29T00:07:27.378Z,7.43
2018-04-29T00:09:53.791Z,7.07
2018-04-29T00:12:20.311Z,7.43
2018-04-29T00:14:47.264Z,8.03
2018-04-29T00:17:13.460Z,8.00
2018-04-29T00:19:39.659Z,7.00
2018-04-29T00:22:05.837Z,7.53
2018-04-29T00:24:32.019Z,9.40
2018-04-29T00:26:58.182Z,10.77
2018-04-29T00:29:25.123Z,9.30
2018-04-29T00:31:51.319Z,11.10
2018-04-29T00:34:17.490Z,9.47
2018-04-29T00:36:43.656Z,13.90
2018-04-29T00:39:10.614Z,15.77
2018-04-29T00:41:37.523Z,16.57
2018-04-29T00:44:03.709Z,16.93
2018-04-29T00:46:30.639Z,18.80
2018-04-29T00:48:56.828Z,16.43
2018-04-29T00:51:23.035Z,15.30
2018-04-29T00:53:49.973Z,11.37
2018-04-29T00:56:16.137Z,12.00
2018-04-29T00:58:43.051Z,12.33
2018-04-29T01:01:09.245Z,10.67
2018-04-29T01:03:35.484Z,10.40
2018-04-29T01:06:01.776Z,9.70
2018-04-29T01:08:27.976Z,9.77
2018-04-29T01:10:54.195Z,10.50
2018-04-29T01:13:21.109Z,9.47
2018-04-29T01:15:47.299Z,9.63
2018-04-29T01:18:14.248Z,10.37
2018-04-29T01:20:41.161Z,11.93
2018-04-29T01:23:07.380Z,11.40
2018-04-29T01:25:33.543Z,12.40
2018-04-29T01:27:59.719Z,9.90
2018-04-29T01:30:26.646Z,11.60
2018-04-29T01:32:52.891Z,10.97
2018-04-29T01:35:20.560Z,9.17
2018-04-29T01:37:46.731Z,10.73
2018-04-29T01:40:13.665Z,10.97
2018-04-29T01:42:39.859Z,10.70
2018-04-29T01:45:06.048Z,9.07
2018-04-29T01:47:33.719Z,11.07
2018-04-29T01:49:59.880Z,12.03
2018-04-29T01:52:26.816Z,10.00
2018-04-29T01:54:53.025Z,8.90
2018-04-29T01:57:19.218Z,11.00
2018-04-29T01:59:46.131Z,9.60
2018-04-29T02:02:12.324Z,9.37
2018-04-29T02:04:39.231Z,10.77
2018-04-29T02:07:05.415Z,10.23
2018-04-29T02:09:32.347Z,10.57
2018-04-29T02:11:58.510Z,12.33
2018-04-29T02:14:25.478Z,9.23
2018-04-29T02:16:51.708Z,10.53
2018-04-29T02:19:18.616Z,10.17
2018-04-29T02:21:44.792Z,10.27
2018-04-29T02:24:11.728Z,8.90
2018-04-29T02:26:37.889Z,9.87
2018-04-29T02:29:04.044Z,8.43
2018-04-29T02:31:30.972Z,9.70
2018-04-29T02:33:57.148Z,8.83
2018-04-29T02:36:23.358Z,9.77
2018-04-29T02:38:50.299Z,9.87
2018-04-29T02:41:16.484Z,9.03
2018-04-29T02:43:42.652Z,10.30
2018-04-29T02:46:08.843Z,10.43
2018-04-29T02:48:35.032Z,9.27
2018-04-29T02:51:01.196Z,9.30
2018-04-29T02:53:27.401Z,9.37
2018-04-29T02:56:00.545Z,10.67
2018-04-29T02:58:26.753Z,10.43
2018-04-29T03:00:52.944Z,9.07
2018-04-29T03:03:19.871Z,9.93
2018-04-29T03:05:46.045Z,10.07
2018-04-29T03:08:12.960Z,10.93
2018-04-29T03:10:39.137Z,10.77
2018-04-29T03:13:06.147Z,10.23
2018-04-29T03:15:32.331Z,12.57
2018-04-29T03:17:59.270Z,10.83
2018-04-29T03:20:25.460Z,11.10
2018-04-29T03:22:51.648Z,10.67
2018-04-29T03:25:18.586Z,10.17
2018-04-29T03:27:44.774Z,10.63
2018-04-29T03:30:11.684Z,10.00
2018-04-29T03:32:37.869Z,11.07
2018-04-29T03:35:04.076Z,11.67
2018-04-29T03:37:31.009Z,11.07
2018-04-29T03:39:57.187Z,10.37
2018-04-29T03:42:23.371Z,10.63
2018-04-29T03:44:49.564Z,11.77
2018-04-29T03:47:15.732Z,11.17
2018-04-29T03:49:41.919Z,10.20
2018-04-29T03:52:08.094Z,10.73
2018-04-29T03:54:34.252Z,10.27
2018-04-29T03:57:12.771Z,10.60
2018-04-29T03:59:52.123Z,11.17
2018-04-29T04:02:30.741Z,12.67
2018-04-29T04:04:56.837Z,11.53
2018-04-29T04:07:23.052Z,11.57
2018-04-29T04:09:49.373Z,11.53
2018-04-29T04:12:15.494Z,11.53
2018-04-29T04:14:41.709Z,12.10
2018-04-29T04:17:09.405Z,10.70
2018-04-29T04:19:35.600Z,13.77
2018-04-29T04:22:01.828Z,11.90
2018-04-29T04:24:28.059Z,12.53
2018-04-29T04:26:55.009Z,13.47
2018-04-29T04:29:21.234Z,14.47
2018-04-29T04:31:47.457Z,14.03
2018-04-29T04:34:13.698Z,12.43
2018-04-29T04:36:39.868Z,13.87
2018-04-29T04:39:06.080Z,12.33
2018-04-29T04:41:32.299Z,12.90
2018-04-29T04:43:58.468Z,12.33
2018-04-29T04:46:24.714Z,13.70
2018-04-29T04:48:50.937Z,12.63
2018-04-29T04:51:17.184Z,14.80
2018-04-29T04:53:44.125Z,12.80
2018-04-29T04:56:10.326Z,13.73
2018-04-29T04:58:36.527Z,12.53
2018-04-29T05:01:03.492Z,13.43
2018-04-29T05:03:29.675Z,12.97
2018-04-29T05:05:55.846Z,14.60
2018-04-29T05:08:22.830Z,14.83
2018-04-29T05:10:49.115Z,15.30
2018-04-29T05:13:15.288Z,14.93
2018-04-29T05:15:41.492Z,13.80
2018-04-29T05:18:07.666Z,17.33
2018-04-29T05:20:34.580Z,13.30
2018-04-29T05:23:00.767Z,14.27
2018-04-29T05:25:27.731Z,16.77
2018-04-29T05:27:53.952Z,14.47
2018-04-29T05:30:20.903Z,13.20
2018-04-29T05:32:47.840Z,13.27
2018-04-29T05:35:14.027Z,14.47
2018-04-29T05:37:40.217Z,13.83
2018-04-29T05:40:06.403Z,15.10
2018-04-29T05:42:32.597Z,16.30
2018-04-29T05:44:58.783Z,15.57
2018-04-29T05:47:25.037Z,18.87
2018-04-29T05:49:51.250Z,18.27
2018-04-29T05:52:18.218Z,16.37
2018-04-29T05:54:44.404Z,18.23
2018-04-29T05:57:10.585Z,18.13
2018-04-29T05:59:37.503Z,19.40
2018-04-29T06:02:03.686Z,19.10
2018-04-29T06:04:30.591Z,18.20
2018-04-29T06:06:56.842Z,18.83
2018-04-29T06:09:23.037Z,17.33
2018-04-29T06:11:49.239Z,18.07
2018-04-29T06:14:16.932Z,17.03
2018-04-29T06:16:43.852Z,16.93
2018-04-29T06:19:10.027Z,20.67
2018-04-29T06:21:37.182Z,16.87
2018-04-29T06:24:04.160Z,16.90
2018-04-29T06:26:30.343Z,15.90
2018-04-29T06:28:56.544Z,17.83
2018-04-29T06:31:22.776Z,16.23
2018-04-29T06:33:49.006Z,15.63
2018-04-29T06:36:15.968Z,16.23
2018-04-29T06:38:42.953Z,17.47
2018-04-29T06:41:09.106Z,17.63
2018-04-29T06:43:35.293Z,15.83
2018-04-29T06:46:01.680Z,16.10
2018-04-29T06:48:27.909Z,16.03
2018-04-29T06:50:54.209Z,15.57
2018-04-29T06:53:21.156Z,15.23
2018-04-29T06:55:47.405Z,15.83
2018-04-29T06:58:14.367Z,15.47
2018-04-29T07:00:40.575Z,15.53
2018-04-29T07:03:06.752Z,16.37
2018-04-29T07:05:33.711Z,20.27
2018-04-29T07:08:00.713Z,17.67
2018-04-29T07:10:26.940Z,17.30
2018-04-29T07:12:53.265Z,17.50
2018-04-29T07:15:19.472Z,18.80
2018-04-29T07:17:45.672Z,18.17
2018-04-29T07:20:11.864Z,19.33
2018-04-29T07:22:38.076Z,17.17
2018-04-29T07:25:04.315Z,17.63
2018-04-29T07:27:31.330Z,19.47
2018-04-29T07:29:57.504Z,16.83
2018-04-29T07:32:23.765Z,18.70
2018-04-29T07:34:49.968Z,16.33
2018-04-29T07:37:23.070Z,15.83
2018-04-29T07:39:49.285Z,15.83
2018-04-29T07:42:16.217Z,16.03
2018-04-29T07:44:43.124Z,15.87
2018-04-29T07:47:09.280Z,16.27
2018-04-29T07:49:35.471Z,14.30
2018-04-29T07:52:01.705Z,15.73
2018-04-29T07:54:27.883Z,15.10
2018-04-29T07:56:54.144Z,15.67
2018-04-29T07:59:27.409Z,15.87
2018-04-29T08:01:53.618Z,16.83
2018-04-29T08:04:19.791Z,14.40
2018-04-29T08:06:45.961Z,15.73
2018-04-29T08:09:12.177Z,17.23
2018-04-29T08:11:38.355Z,15.87
2018-04-29T08:14:04.527Z,14.90
2018-04-29T08:16:31.481Z,16.87
2018-04-29T08:18:58.401Z,15.33
2018-04-29T08:21:24.608Z,16.93
2018-04-29T08:23:50.847Z,17.30
2018-04-29T08:26:17.024Z,18.60
2018-04-29T08:28:43.182Z,17.20
2018-04-29T08:31:09.369Z,18.30
2018-04-29T08:33:35.537Z,16.80
2018-04-29T08:36:01.715Z,17.93
2018-04-29T08:38:28.715Z,16.30
2018-04-29T08:40:54.951Z,16.07
2018-04-29T08:43:21.176Z,17.83
2018-04-29T08:45:47.338Z,17.10
2018-04-29T08:48:13.505Z,16.07
2018-04-29T08:50:39.677Z,16.93
2018-04-29T08:53:06.682Z,16.77
2018-04-29T08:55:32.855Z,15.00
2018-04-29T08:57:59.039Z,15.27
2018-04-29T09:00:26.114Z,16.10
2018-04-29T09:02:52.376Z,15.07
2018-04-29T09:05:20.032Z,14.33
2018-04-29T09:07:46.223Z,18.37
2018-04-29T09:10:13.177Z,16.47
2018-04-29T09:12:39.339Z,14.80
2018-04-29T09:15:05.539Z,14.70
2018-04-29T09:17:31.809Z,13.87
2018-04-29T09:19:57.937Z,13.83
2018-04-29T09:22:24.971Z,13.73
2018-04-29T09:24:51.268Z,15.50
2018-04-29T09:27:17.448Z,14.20
2018-04-29T09:29:43.627Z,13.03
2018-04-29T09:32:09.862Z,13.27
2018-04-29T09:34:36.787Z,12.63
2018-04-29T09:37:03.067Z,13.43
2018-04-29T09:39:30.008Z,13.50
2018-04-29T09:41:56.961Z,15.30
2018-04-29T09:44:23.176Z,14.03
2018-04-29T09:46:50.175Z,13.50
2018-04-29T09:49:16.373Z,14.63
2018-04-29T09:51:42.579Z,13.43
2018-04-29T09:54:08.760Z,14.20
2018-04-29T09:56:34.933Z,13.80
2018-04-29T09:59:01.887Z,15.50
2018-04-29T10:01:28.139Z,17.90
2018-04-29T10:03:54.324Z,14.83
2018-04-29T10:06:22.017Z,14.53
2018-04-29T10:08:48.936Z,17.03
2018-04-29T10:11:15.134Z,15.83
2018-04-29T10:13:41.331Z,16.83
2018-04-29T10:16:14.496Z,17.67
2018-04-29T10:18:40.707Z,17.57
2018-04-29T10:21:07.652Z,17.70
2018-04-29T10:23:34.580Z,17.17
2018-04-29T10:26:00.760Z,19.00
2018-04-29T10:28:27.671Z,18.30
2018-04-29T10:30:53.878Z,18.80
2018-04-29T10:33:20.065Z,20.53
2018-04-29T10:35:46.261Z,19.63
2018-04-29T10:38:12.435Z,18.93
2018-04-29T10:40:38.613Z,20.63
2018-04-29T10:43:05.587Z,20.40
2018-04-29T10:45:31.803Z,20.10
2018-04-29T10:47:58.768Z,23.60
2018-04-29T10:50:24.968Z,23.27
2018-04-29T10:52:51.944Z,23.07
2018-04-29T10:55:18.167Z,20.23
2018-04-29T10:57:44.352Z,21.10
2018-04-29T11:00:11.303Z,20.73
2018-04-29T11:02:38.239Z,18.40
2018-04-29T11:05:04.443Z,21.97
2018-04-29T11:07:30.856Z,24.23
2018-04-29T11:09:57.093Z,21.20
2018-04-29T11:12:24.017Z,23.33
2018-04-29T11:14:51.760Z,22.23
2018-04-29T11:17:17.942Z,22.30
2018-04-29T11:19:44.119Z,25.73
2018-04-29T11:22:10.338Z,18.03
2018-04-29T11:24:36.497Z,19.87
2018-04-29T11:27:02.712Z,20.30
2018-04-29T11:29:29.660Z,19.83
2018-04-29T11:31:56.587Z,19.43
2018-04-29T11:34:22.772Z,21.77
2018-04-29T11:36:49.701Z,23.97
2018-04-29T11:39:15.895Z,22.03
2018-04-29T11:41:42.076Z,20.73
2018-04-29T11:44:09.757Z,18.17
2018-04-29T11:46:35.943Z,21.20
2018-04-29T11:49:02.126Z,21.03
2018-04-29T11:51:29.076Z,18.90
2018-04-29T11:53:55.256Z,17.50
2018-04-29T11:56:22.173Z,17.80
2018-04-29T11:58:48.393Z,20.10
2018-04-29T12:01:14.575Z,18.10
2018-04-29T12:03:40.765Z,18.47
2018-04-29T12:06:06.955Z,18.63
2018-04-29T12:08:33.874Z,16.77
2018-04-29T12:11:00.040Z,17.10
2018-04-29T12:13:26.994Z,19.43
2018-04-29T12:15:53.205Z,18.20
2018-04-29T12:18:19.391Z,18.50
2018-04-29T12:20:46.307Z,18.33
2018-04-29T12:23:12.487Z,17.00
2018-04-29T12:25:38.686Z,17.07
2018-04-29T12:28:04.892Z,16.23
2018-04-29T12:30:31.052Z,16.80
2018-04-29T12:32:57.256Z,20.73
2018-04-29T12:35:24.185Z,20.33
2018-04-29T12:37:51.128Z,17.43
2018-04-29T12:40:17.305Z,17.33
2018-04-29T12:42:43.533Z,17.23
2018-04-29T12:45:11.017Z,17.50
2018-04-29T12:47:37.213Z,15.03
2018-04-29T12:50:03.454Z,15.47
2018-04-29T12:52:29.619Z,15.80
2018-04-29T12:54:56.696Z,15.37
2018-04-29T12:57:22.923Z,15.37
2018-04-29T12:59:49.859Z,14.00
2018-04-29T13:02:16.803Z,14.30
2018-04-29T13:04:43.008Z,12.93
2018-04-29T13:07:09.176Z,13.40
2018-04-29T13:09:35.372Z,13.07
2018-04-29T13:12:01.597Z,12.50
2018-04-29T13:14:28.514Z,13.73
2018-04-29T13:16:54.723Z,15.63
2018-04-29T13:19:20.929Z,13.97
2018-04-29T13:21:47.222Z,13.07
2018-04-29T13:24:13.341Z,12.40
2018-04-29T13:26:39.528Z,13.30
2018-04-29T13:29:06.463Z,13.77
2018-04-29T13:31:32.639Z,12.97
2018-04-29T13:33:59.597Z,11.77
2018-04-29T13:36:25.801Z,11.83
2018-04-29T13:38:51.992Z,11.93
2018-04-29T13:41:18.998Z,10.47
2018-04-29T13:43:45.175Z,10.80
2018-04-29T13:46:11.373Z,11.80
2018-04-29T13:48:37.597Z,10.57
2018-04-29T13:51:03.788Z,12.80
2018-04-29T13:53:29.977Z,12.27
2018-04-29T13:55:56.189Z,11.60
2018-04-29T13:58:23.131Z,11.27
2018-04-29T14:00:50.064Z,12.80
2018-04-29T14:03:16.329Z,13.40
2018-04-29T14:05:42.448Z,12.17
2018-04-29T14:08:10.185Z,12.67
2018-04-29T14:10:36.433Z,11.80
2018-04-29T14:13:03.414Z,13.97
2018-04-29T14:15:29.635Z,11.63
2018-04-29T14:17:55.847Z,13.87
2018-04-29T14:20:22.045Z,11.67
2018-04-29T14:22:48.228Z,11.50
2018-04-29T14:25:14.419Z,11.27
2018-04-29T14:27:40.605Z,11.27
2018-04-29T14:30:06.801Z,12.00
2018-04-29T14:32:32.999Z,11.40
2018-04-29T14:34:59.187Z,11.63
2018-04-29T14:37:26.123Z,11.93
2018-04-29T14:39:52.387Z,11.67
2018-04-29T14:42:18.563Z,10.00
2018-04-29T14:44:44.743Z,11.60
2018-04-29T14:47:10.940Z,11.50
2018-04-29T14:49:37.253Z,10.87
2018-04-29T14:52:03.353Z,11.40
2018-04-29T14:54:29.548Z,11.27
2018-04-29T14:56:56.459Z,12.80
2018-04-29T14:59:22.665Z,11.13
2018-04-29T15:01:48.883Z,15.17
2018-04-29T15:04:15.811Z,12.93
2018-04-29T15:06:42.003Z,11.57
2018-04-29T15:09:08.193Z,12.00
2018-04-29T15:11:34.371Z,12.20
2018-04-29T15:14:01.385Z,13.93
2018-04-29T15:16:27.656Z,11.03
2018-04-29T15:18:58.987Z,12.73
2018-04-29T15:21:25.177Z,11.33
2018-04-29T15:23:51.455Z,12.67
2018-04-29T15:26:17.640Z,11.73
2018-04-29T15:28:43.825Z,11.87
2018-04-29T15:31:10.020Z,12.93
2018-04-29T15:33:36.956Z,17.87
2018-04-29T15:36:03.880Z,17.03
2018-04-29T15:38:30.091Z,17.83
2018-04-29T15:40:56.308Z,18.40
2018-04-29T15:43:23.288Z,18.73
2018-04-29T15:45:49.587Z,20.47
2018-04-29T15:48:16.539Z,18.00
2018-04-29T15:50:42.742Z,19.67
2018-04-29T15:53:08.965Z,16.87
2018-04-29T15:55:35.158Z,19.30
2018-04-29T15:58:01.432Z,20.53
2018-04-29T16:00:27.620Z,19.87
2018-04-29T16:02:53.840Z,19.50
2018-04-29T16:05:20.045Z,21.50
2018-04-29T16:07:46.274Z,19.20
2018-04-29T16:10:13.208Z,21.13
2018-04-29T16:12:39.395Z,20.30
2018-04-29T16:15:05.620Z,19.03
2018-04-29T16:17:32.549Z,23.03
2018-04-29T16:19:58.786Z,20.43
2018-04-29T16:22:25.086Z,18.67
2018-04-29T16:24:51.310Z,20.40
2018-04-29T16:27:17.509Z,18.57
2018-04-29T16:29:43.739Z,19.20
2018-04-29T16:32:10.085Z,18.30
2018-04-29T16:34:37.031Z,19.03
2018-04-29T16:37:03.254Z,20.40
2018-04-29T16:39:29.593Z,18.97
2018-04-29T16:41:56.661Z,17.53
2018-04-29T16:44:22.868Z,17.43
2018-04-29T16:46:49.112Z,16.77
2018-04-29T16:49:15.325Z,18.57
2018-04-29T16:51:41.637Z,17.40
2018-04-29T16:54:07.815Z,16.53
2018-04-29T16:56:34.735Z,16.00
2018-04-29T16:59:00.947Z,17.00
2018-04-29T17:01:27.456Z,17.30
2018-04-29T17:03:54.383Z,17.67
2018-04-29T17:06:20.583Z,17.50
2018-04-29T17:08:46.792Z,17.03
2018-04-29T17:11:12.999Z,16.73
2018-04-29T17:13:39.209Z,18.37
2018-04-29T17:16:05.419Z,18.47
2018-04-29T17:18:31.639Z,19.10
2018-04-29T17:20:57.839Z,16.83
2018-04-29T17:23:24.057Z,17.03
2018-04-29T17:25:50.254Z,17.47
2018-04-29T17:28:16.469Z,18.13
2018-04-29T17:30:42.682Z,14.77
2018-04-29T17:33:08.883Z,14.90
2018-04-29T17:35:35.854Z,15.57
2018-04-29T17:38:02.148Z,16.17
2018-04-29T17:40:29.015Z,14.70
2018-04-29T17:42:55.269Z,18.03
2018-04-29T17:45:22.283Z,17.97
2018-04-29T17:47:48.505Z,20.00
2018-04-29T17:50:14.792Z,18.33
2018-04-29T17:52:40.971Z,16.97
2018-04-29T17:55:07.165Z,17.03
2018-04-29T17:57:33.362Z,16.57
2018-04-29T17:59:59.583Z,18.43
2018-04-29T18:02:25.808Z,19.33
2018-04-29T18:04:52.038Z,17.97
2018-04-29T18:07:18.212Z,17.73
2018-04-29T18:09:44.364Z,16.87
2018-04-29T18:12:11.311Z,18.07
2018-04-29T18:14:38.230Z,18.27
2018-04-29T18:17:05.699Z,17.33
2018-04-29T18:19:32.145Z,17.63
2018-04-29T18:21:58.353Z,23.13
2018-04-29T18:24:24.516Z,22.17
2018-04-29T18:26:51.470Z,22.60
2018-04-29T18:29:17.632Z,23.03
2018-04-29T18:31:43.785Z,20.97
2018-04-29T18:34:09.945Z,23.40
2018-04-29T18:36:36.115Z,24.03
2018-04-29T18:39:02.281Z,25.00
2018-04-29T18:41:29.218Z,24.63
2018-04-29T18:43:55.365Z,25.07
2018-04-29T18:46:22.264Z,24.00
2018-04-29T18:48:48.481Z,24.50
2018-04-29T18:51:14.773Z,21.73
2018-04-29T18:53:41.618Z,24.80
2018-04-29T18:56:07.830Z,29.00
2018-04-29T18:58:34.744Z,29.33
2018-04-29T19:01:00.901Z,25.10
2018-04-29T19:03:27.832Z,26.90
2018-04-29T19:05:57.967Z,29.33
2018-04-29T19:08:24.948Z,26.03
2018-04-29T19:10:51.097Z,23.87
2018-04-29T19:13:17.256Z,28.37
2018-04-29T19:15:43.455Z,29.37
2018-04-29T19:18:09.636Z,30.10
2018-04-29T19:20:36.539Z,27.83
2018-04-29T19:23:02.697Z,26.57
2018-04-29T19:25:29.620Z,30.27
2018-04-29T19:27:55.818Z,30.03
2018-04-29T19:30:21.973Z,29.37
2018-04-29T19:32:48.136Z,34.67
2018-04-29T19:35:15.020Z,28.43
2018-04-29T19:37:41.165Z,33.83
2018-04-29T19:40:07.375Z,37.43
2018-04-29T19:42:33.525Z,34.00
2018-04-29T19:44:59.669Z,32.67
2018-04-29T19:47:25.965Z,33.27
2018-04-29T19:49:52.112Z,32.73
2018-04-29T19:52:18.265Z,36.80
2018-04-29T19:54:45.169Z,38.50
2018-04-29T19:57:11.322Z,35.97
2018-04-29T19:59:37.480Z,33.27
2018-04-29T20:02:03.678Z,38.47
2018-04-29T20:04:30.691Z,31.60
2018-04-29T20:06:56.861Z,36.17
2018-04-29T20:09:23.798Z,35.20
2018-04-29T20:11:50.745Z,34.90
2018-04-29T20:14:16.889Z,37.93
2018-04-29T20:16:43.005Z,37.87
2018-04-29T20:19:09.123Z,38.07
2018-04-29T20:21:35.214Z,36.30
2018-04-29T20:24:01.361Z,36.03
2018-04-29T20:26:27.475Z,38.07
2018-04-29T20:28:53.622Z,42.37
2018-04-29T20:31:20.522Z,39.60
2018-04-29T20:33:46.650Z,39.67
2018-04-29T20:36:12.780Z,38.53
2018-04-29T20:38:38.913Z,38.77
2018-04-29T20:41:05.047Z,35.83
2018-04-29T20:43:31.164Z,29.17
2018-04-29T20:45:57.412Z,35.20
2018-04-29T20:48:23.602Z,39.93
2018-04-29T20:50:50.456Z,33.40
2018-04-29T20:53:16.665Z,35.50
2018-04-29T20:55:43.525Z,36.47
2018-04-29T20:58:09.686Z,32.03
2018-04-29T21:00:35.885Z,31.63
2018-04-29T21:03:01.965Z,40.37
2018-04-29T21:05:28.849Z,37.77
2018-04-29T21:07:55.814Z,37.67
2018-04-29T21:10:21.965Z,36.23
2018-04-29T21:12:48.090Z,36.83
2018-04-29T21:15:14.241Z,35.77
2018-04-29T21:17:41.101Z,34.67
2018-04-29T21:20:07.225Z,36.33
2018-04-29T21:22:33.449Z,39.13
2018-04-29T21:24:59.629Z,34.87
2018-04-29T21:27:25.840Z,34.77
2018-04-29T21:29:51.996Z,36.50
2018-04-29T21:32:18.138Z,33.07
2018-04-29T21:34:44.321Z,34.20
2018-04-29T21:37:10.494Z,30.47
2018-04-29T21:39:37.416Z,26.97
2018-04-29T21:42:03.505Z,25.73
2018-04-29T21:44:29.635Z,23.33
2018-04-29T21:46:55.834Z,24.87
2018-04-29T21:49:22.009Z,26.17
2018-04-29T21:51:48.983Z,21.97
2018-04-29T21:54:15.100Z,26.33
2018-04-29T21:56:41.289Z,26.47
2018-04-29T21:59:07.457Z,30.83
2018-04-29T22:01:33.569Z,25.57
2018-04-29T22:03:59.704Z,24.83
2018-04-29T22:06:25.834Z,27.70
2018-04-29T22:08:51.939Z,25.07
2018-04-29T22:11:18.066Z,24.83
2018-04-29T22:13:44.219Z,23.40
2018-04-29T22:16:10.349Z,23.50
2018-04-29T22:18:36.501Z,24.07
2018-04-29T22:21:02.706Z,23.00
2018-04-29T22:23:28.845Z,20.07
2018-04-29T22:25:54.948Z,23.13
2018-04-29T22:28:21.809Z,24.40
2018-04-29T22:30:47.994Z,19.03
2018-04-29T22:33:14.102Z,21.70
2018-04-29T22:35:41.055Z,19.60
2018-04-29T22:38:07.973Z,20.17
2018-04-29T22:40:34.943Z,14.93
2018-04-29T22:43:01.081Z,17.13
2018-04-29T22:45:27.213Z,18.90
2018-04-29T22:47:53.322Z,17.80
2018-04-29T22:50:20.289Z,15.93
2018-04-29T22:52:46.410Z,18.90
2018-04-29T22:55:12.562Z,16.93
2018-04-29T22:57:39.531Z,17.63
2018-04-29T23:00:05.657Z,18.43
2018-04-29T23:02:32.506Z,16.33
2018-04-29T23:07:55.434Z,18.77
2018-04-29T23:10:21.653Z,18.43
2018-04-29T23:12:47.855Z,16.13
2018-04-29T23:15:14.029Z,8.43
2018-04-29T23:17:40.214Z,5.67
2018-04-29T23:20:06.365Z,5.97
2018-04-29T23:22:32.568Z,6.73
2018-04-29T23:24:58.798Z,6.83
2018-04-29T23:27:25.678Z,8.17
2018-04-29T23:29:51.841Z,6.83
2018-04-29T23:32:18.025Z,5.67
2018-04-29T23:34:44.198Z,8.37
2018-04-29T23:37:10.354Z,5.03
2018-04-29T23:39:37.250Z,6.53
2018-04-29T23:42:03.471Z,7.00
2018-04-29T23:44:29.625Z,6.20
2018-04-29T23:46:55.800Z,7.73
2018-04-29T23:49:21.977Z,7.87
2018-04-29T23:51:48.211Z,7.43
2018-04-29T23:54:14.432Z,8.47
2018-04-29T23:56:40.617Z,8.10
2018-04-29T23:59:06.800Z,7.73
